Valparaiso, FL

3:29 AM CST on February 07, 2016 (GMT -0600)
Eglin Air Force Base | | Change Station
CLOSE
Current Station
Airport
Location: Valparaiso,
Elevation: 85 ft
Nearby Weather Stations

Elev 85 ft 30.48 °N, 86.53 °W | Updated 34 minutes ago

Clear
Clear
39 °F
Feels Like 32 °F
N
9
Wind Variable Wind from NNW

Today
High -- | Low -- °F
--% Chance of Precip.
Yesterday
High -- | Low -- °F
Precip. -- in
Pressure 30.20 in
Visibility 10.0 miles
Clouds Clear
Windchill 32 °F
Dew Point 22 °F
Humidity 51%
Rainfall 0.00 in
Snow Depth Not available.
6:33 AM 5:27 PM
Waning Crescent, 2% visible
METAR KVPS 070855Z 33008KT 10SM CLR 04/M06 A3018 RMK AO2A SLP227 T00371057 57005 $
Pressure 30.20 in
Visibility 10.0 miles
Clouds Clear
Windchill 32 °F
Dew Point 22 °F
Humidity 51%
Rainfall 0.00 in
Snow Depth Not available.
6:33 AM 5:27 PM
Waning Crescent, 2% visible
METAR KVPS 070855Z 33008KT 10SM CLR 04/M06 A3018 RMK AO2A SLP227 T00371057 57005 $

10-Day Weather Forecast

Almanac

Astronomy

Feb. 07, 2016 Rise Set
Actual Time
Civil Twilight
Nautical Twilight
Astronomical Twilight
Moon
Length of Visible Light
Length of Day
Tomorrow will be .
, % of the Moon is Illuminated

Today's Extremes

State Highs State Lows

Community

WunderPhotos

Upload Photos

1,891,171 photos uploaded!

WunderBlog® & News

Nearby

Air Quality

  Air Quality AQ Index Pollutant
Not available.

Snow Depth

Station Depth Elevation

Earthquake Activity

City Distance Mag. Time & Date
Minimum magnitude displayed is 2.5.

Coastal Water Temperatures

Place Temperature

Stations

Nearby Weather Stations

Station Location Temp. Windchill Dew Point Humidity Wind Precip. Elev Updated Type
                   

Watches & Warnings

There are currently no watches in effect.